sensor_id;sensor_type;location;lat;lon;timestamp;P1;durP1;ratioP1;P2;durP2;ratioP2
23565;SDS011;22140;48.988;8.544;2022-08-03T00:04:00;7.67;;;2.80;;
23565;SDS011;22140;48.988;8.544;2022-08-03T00:09:02;7.68;;;2.97;;
23565;SDS011;22140;48.988;8.544;2022-08-03T00:14:04;7.30;;;3.13;;
23565;SDS011;22140;48.988;8.544;2022-08-03T00:19:05;7.27;;;2.67;;
23565;SDS011;22140;48.988;8.544;2022-08-03T00:24:07;6.17;;;2.80;;
23565;SDS011;22140;48.988;8.544;2022-08-03T00:29:11;6.88;;;2.90;;
23565;SDS011;22140;48.988;8.544;2022-08-03T00:34:12;7.95;;;3.00;;
23565;SDS011;22140;48.988;8.544;2022-08-03T00:39:14;7.00;;;2.80;;
23565;SDS011;22140;48.988;8.544;2022-08-03T00:44:15;7.05;;;3.08;;
23565;SDS011;22140;48.988;8.544;2022-08-03T00:49:16;9.85;;;3.65;;
23565;SDS011;22140;48.988;8.544;2022-08-03T00:54:18;6.67;;;3.00;;
23565;SDS011;22140;48.988;8.544;2022-08-03T00:59:21;6.72;;;2.88;;
23565;SDS011;22140;48.988;8.544;2022-08-03T01:04:22;8.20;;;3.30;;
23565;SDS011;22140;48.988;8.544;2022-08-03T01:14:38;7.23;;;3.03;;
23565;SDS011;22140;48.988;8.544;2022-08-03T01:19:53;7.72;;;2.80;;
23565;SDS011;22140;48.988;8.544;2022-08-03T01:30:04;6.77;;;2.70;;
23565;SDS011;22140;48.988;8.544;2022-08-03T01:35:10;7.20;;;3.10;;
23565;SDS011;22140;48.988;8.544;2022-08-03T01:40:12;10.05;;;2.90;;
23565;SDS011;22140;48.988;8.544;2022-08-03T01:45:14;7.10;;;3.30;;
23565;SDS011;22140;48.988;8.544;2022-08-03T01:50:19;9.10;;;3.38;;
23565;SDS011;22140;48.988;8.544;2022-08-03T01:55:21;7.68;;;3.30;;
23565;SDS011;22140;48.988;8.544;2022-08-03T02:00:23;8.30;;;2.80;;
23565;SDS011;22140;48.988;8.544;2022-08-03T02:05:25;8.30;;;3.10;;
23565;SDS011;22140;48.988;8.544;2022-08-03T02:10:28;7.18;;;3.08;;
23565;SDS011;22140;48.988;8.544;2022-08-03T02:15:36;7.05;;;2.85;;
23565;SDS011;22140;48.988;8.544;2022-08-03T02:20:38;6.80;;;2.90;;
23565;SDS011;22140;48.988;8.544;2022-08-03T02:25:42;7.68;;;3.33;;
23565;SDS011;22140;48.988;8.544;2022-08-03T02:30:45;7.25;;;3.10;;
23565;SDS011;22140;48.988;8.544;2022-08-03T02:35:52;6.43;;;2.93;;
23565;SDS011;22140;48.988;8.544;2022-08-03T02:40:54;7.03;;;3.03;;
23565;SDS011;22140;48.988;8.544;2022-08-03T02:45:56;8.27;;;3.30;;
23565;SDS011;22140;48.988;8.544;2022-08-03T02:50:58;10.23;;;3.43;;
23565;SDS011;22140;48.988;8.544;2022-08-03T02:56:00;7.30;;;3.00;;
23565;SDS011;22140;48.988;8.544;2022-08-03T03:01:02;7.68;;;3.55;;
23565;SDS011;22140;48.988;8.544;2022-08-03T03:06:04;8.05;;;3.15;;
23565;SDS011;22140;48.988;8.544;2022-08-03T03:11:07;9.27;;;3.23;;
23565;SDS011;22140;48.988;8.544;2022-08-03T03:16:08;7.03;;;3.33;;
23565;SDS011;22140;48.988;8.544;2022-08-03T03:21:12;7.38;;;3.28;;
23565;SDS011;22140;48.988;8.544;2022-08-03T03:26:14;7.07;;;3.20;;
23565;SDS011;22140;48.988;8.544;2022-08-03T03:31:15;7.28;;;3.17;;
23565;SDS011;22140;48.988;8.544;2022-08-03T03:36:17;7.55;;;3.20;;
23565;SDS011;22140;48.988;8.544;2022-08-03T03:41:18;7.03;;;3.03;;
23565;SDS011;22140;48.988;8.544;2022-08-03T03:46:20;8.33;;;3.13;;
23565;SDS011;22140;48.988;8.544;2022-08-03T03:51:22;7.45;;;3.50;;
23565;SDS011;22140;48.988;8.544;2022-08-03T03:56:23;7.10;;;3.65;;
23565;SDS011;22140;48.988;8.544;2022-08-03T04:01:25;7.93;;;3.57;;
23565;SDS011;22140;48.988;8.544;2022-08-03T04:06:27;7.88;;;3.08;;
23565;SDS011;22140;48.988;8.544;2022-08-03T04:11:49;8.85;;;3.22;;
23565;SDS011;22140;48.988;8.544;2022-08-03T04:16:56;7.20;;;3.60;;
23565;SDS011;22140;48.988;8.544;2022-08-03T04:21:59;7.43;;;3.38;;
23565;SDS011;22140;48.988;8.544;2022-08-03T04:27:01;7.72;;;3.50;;
23565;SDS011;22140;48.988;8.544;2022-08-03T04:32:04;6.97;;;3.20;;
23565;SDS011;22140;48.988;8.544;2022-08-03T04:37:10;7.00;;;3.03;;
23565;SDS011;22140;48.988;8.544;2022-08-03T04:42:11;7.78;;;3.20;;
23565;SDS011;22140;48.988;8.544;2022-08-03T04:47:13;11.63;;;3.80;;
23565;SDS011;22140;48.988;8.544;2022-08-03T04:52:15;8.40;;;3.50;;
23565;SDS011;22140;48.988;8.544;2022-08-03T04:57:17;10.20;;;3.75;;
23565;SDS011;22140;48.988;8.544;2022-08-03T05:02:23;7.22;;;3.30;;
23565;SDS011;22140;48.988;8.544;2022-08-03T05:07:27;7.43;;;3.70;;
23565;SDS011;22140;48.988;8.544;2022-08-03T05:12:36;7.78;;;3.58;;
23565;SDS011;22140;48.988;8.544;2022-08-03T05:17:38;8.80;;;3.63;;
23565;SDS011;22140;48.988;8.544;2022-08-03T05:22:39;8.53;;;3.30;;
23565;SDS011;22140;48.988;8.544;2022-08-03T05:27:41;10.63;;;3.70;;
23565;SDS011;22140;48.988;8.544;2022-08-03T05:32:42;8.40;;;3.28;;
23565;SDS011;22140;48.988;8.544;2022-08-03T05:37:43;7.93;;;3.33;;
23565;SDS011;22140;48.988;8.544;2022-08-03T05:42:55;9.67;;;3.37;;
23565;SDS011;22140;48.988;8.544;2022-08-03T05:47:58;8.10;;;3.10;;
23565;SDS011;22140;48.988;8.544;2022-08-03T05:52:59;9.55;;;3.40;;
23565;SDS011;22140;48.988;8.544;2022-08-03T05:58:00;10.57;;;3.30;;
23565;SDS011;22140;48.988;8.544;2022-08-03T06:03:03;8.77;;;3.55;;
23565;SDS011;22140;48.988;8.544;2022-08-03T06:08:05;11.95;;;3.38;;
23565;SDS011;22140;48.988;8.544;2022-08-03T06:13:06;8.97;;;3.10;;
23565;SDS011;22140;48.988;8.544;2022-08-03T06:18:07;7.73;;;3.10;;
23565;SDS011;22140;48.988;8.544;2022-08-03T06:23:09;7.20;;;2.90;;
23565;SDS011;22140;48.988;8.544;2022-08-03T06:28:17;7.68;;;2.83;;
23565;SDS011;22140;48.988;8.544;2022-08-03T06:33:39;10.63;;;3.00;;
23565;SDS011;22140;48.988;8.544;2022-08-03T06:39:00;6.60;;;2.75;;
23565;SDS011;22140;48.988;8.544;2022-08-03T06:44:02;17.67;;;3.20;;
23565;SDS011;22140;48.988;8.544;2022-08-03T06:49:05;9.73;;;3.10;;
23565;SDS011;22140;48.988;8.544;2022-08-03T06:54:06;8.45;;;3.10;;
23565;SDS011;22140;48.988;8.544;2022-08-03T06:59:08;9.60;;;3.10;;
23565;SDS011;22140;48.988;8.544;2022-08-03T07:04:29;8.60;;;3.53;;
23565;SDS011;22140;48.988;8.544;2022-08-03T07:09:30;9.87;;;3.40;;
23565;SDS011;22140;48.988;8.544;2022-08-03T07:14:32;8.43;;;3.10;;
23565;SDS011;22140;48.988;8.544;2022-08-03T07:19:33;8.70;;;3.55;;
23565;SDS011;22140;48.988;8.544;2022-08-03T07:24:35;6.43;;;3.77;;
23565;SDS011;22140;48.988;8.544;2022-08-03T07:29:36;7.95;;;3.60;;
23565;SDS011;22140;48.988;8.544;2022-08-03T07:34:38;7.22;;;3.45;;
23565;SDS011;22140;48.988;8.544;2022-08-03T07:39:39;7.23;;;3.73;;
23565;SDS011;22140;48.988;8.544;2022-08-03T07:44:40;7.32;;;3.40;;
23565;SDS011;22140;48.988;8.544;2022-08-03T07:49:42;10.65;;;3.83;;
23565;SDS011;22140;48.988;8.544;2022-08-03T07:54:43;7.97;;;3.70;;
23565;SDS011;22140;48.988;8.544;2022-08-03T07:59:45;10.00;;;4.30;;
23565;SDS011;22140;48.988;8.544;2022-08-03T08:05:02;8.88;;;3.97;;
23565;SDS011;22140;48.988;8.544;2022-08-03T08:10:06;7.68;;;3.97;;
23565;SDS011;22140;48.988;8.544;2022-08-03T08:15:14;6.97;;;4.20;;
23565;SDS011;22140;48.988;8.544;2022-08-03T08:20:16;6.95;;;4.07;;
23565;SDS011;22140;48.988;8.544;2022-08-03T08:25:30;8.05;;;4.25;;
23565;SDS011;22140;48.988;8.544;2022-08-03T08:30:32;8.77;;;4.40;;
23565;SDS011;22140;48.988;8.544;2022-08-03T08:35:35;7.68;;;4.05;;
23565;SDS011;22140;48.988;8.544;2022-08-03T08:40:36;6.88;;;4.10;;
23565;SDS011;22140;48.988;8.544;2022-08-03T08:45:39;7.63;;;4.00;;
23565;SDS011;22140;48.988;8.544;2022-08-03T08:50:40;8.87;;;4.03;;
23565;SDS011;22140;48.988;8.544;2022-08-03T08:55:42;7.05;;;3.88;;
23565;SDS011;22140;48.988;8.544;2022-08-03T09:01:00;7.55;;;3.97;;
23565;SDS011;22140;48.988;8.544;2022-08-03T09:06:01;7.80;;;4.20;;
23565;SDS011;22140;48.988;8.544;2022-08-03T09:11:03;9.65;;;3.58;;
23565;SDS011;22140;48.988;8.544;2022-08-03T09:16:08;5.82;;;3.35;;
23565;SDS011;22140;48.988;8.544;2022-08-03T09:26:32;6.97;;;2.83;;
23565;SDS011;22140;48.988;8.544;2022-08-03T09:31:35;6.90;;;2.90;;
23565;SDS011;22140;48.988;8.544;2022-08-03T09:36:47;13.90;;;3.70;;
23565;SDS011;22140;48.988;8.544;2022-08-03T09:47:05;7.72;;;2.90;;
23565;SDS011;22140;48.988;8.544;2022-08-03T09:57:34;9.80;;;3.17;;
23565;SDS011;22140;48.988;8.544;2022-08-03T10:02:35;6.45;;;3.00;;
23565;SDS011;22140;48.988;8.544;2022-08-03T10:07:47;10.13;;;3.10;;
23565;SDS011;22140;48.988;8.544;2022-08-03T10:12:48;5.63;;;3.03;;
23565;SDS011;22140;48.988;8.544;2022-08-03T10:17:50;6.60;;;3.03;;
23565;SDS011;22140;48.988;8.544;2022-08-03T10:22:51;7.63;;;2.88;;
23565;SDS011;22140;48.988;8.544;2022-08-03T10:27:53;6.50;;;3.00;;
23565;SDS011;22140;48.988;8.544;2022-08-03T10:33:00;6.93;;;3.60;;
23565;SDS011;22140;48.988;8.544;2022-08-03T10:38:03;6.65;;;2.70;;
23565;SDS011;22140;48.988;8.544;2022-08-03T10:43:08;7.63;;;2.97;;
23565;SDS011;22140;48.988;8.544;2022-08-03T10:48:10;6.50;;;2.60;;
23565;SDS011;22140;48.988;8.544;2022-08-03T10:53:11;7.15;;;2.80;;
23565;SDS011;22140;48.988;8.544;2022-08-03T11:14:10;6.25;;;2.85;;
23565;SDS011;22140;48.988;8.544;2022-08-03T11:19:13;6.77;;;2.70;;
23565;SDS011;22140;48.988;8.544;2022-08-03T11:29:35;7.82;;;3.08;;
23565;SDS011;22140;48.988;8.544;2022-08-03T11:34:56;6.07;;;2.80;;
23565;SDS011;22140;48.988;8.544;2022-08-03T11:39:57;6.67;;;2.80;;
23565;SDS011;22140;48.988;8.544;2022-08-03T11:44:59;6.57;;;2.60;;
23565;SDS011;22140;48.988;8.544;2022-08-03T11:50:00;9.80;;;3.17;;
23565;SDS011;22140;48.988;8.544;2022-08-03T11:55:02;7.97;;;2.70;;
23565;SDS011;22140;48.988;8.544;2022-08-03T12:00:20;6.22;;;2.20;;
23565;SDS011;22140;48.988;8.544;2022-08-03T12:05:31;6.20;;;2.42;;
23565;SDS011;22140;48.988;8.544;2022-08-03T12:10:33;7.20;;;2.43;;
23565;SDS011;22140;48.988;8.544;2022-08-03T12:15:35;6.60;;;2.40;;
23565;SDS011;22140;48.988;8.544;2022-08-03T12:20:36;6.18;;;2.45;;
23565;SDS011;22140;48.988;8.544;2022-08-03T12:25:38;5.47;;;2.50;;
23565;SDS011;22140;48.988;8.544;2022-08-03T12:30:40;5.77;;;2.80;;
23565;SDS011;22140;48.988;8.544;2022-08-03T12:35:42;6.07;;;2.67;;
23565;SDS011;22140;48.988;8.544;2022-08-03T12:40:58;7.32;;;2.63;;
23565;SDS011;22140;48.988;8.544;2022-08-03T12:46:10;5.77;;;2.70;;
23565;SDS011;22140;48.988;8.544;2022-08-03T12:51:11;5.57;;;2.70;;
23565;SDS011;22140;48.988;8.544;2022-08-03T12:56:13;6.45;;;2.67;;
23565;SDS011;22140;48.988;8.544;2022-08-03T13:01:14;6.10;;;2.60;;
23565;SDS011;22140;48.988;8.544;2022-08-03T13:06:17;5.83;;;2.83;;
23565;SDS011;22140;48.988;8.544;2022-08-03T13:16:20;6.28;;;3.33;;
23565;SDS011;22140;48.988;8.544;2022-08-03T13:21:22;5.53;;;2.87;;
23565;SDS011;22140;48.988;8.544;2022-08-03T13:26:23;8.95;;;2.80;;
23565;SDS011;22140;48.988;8.544;2022-08-03T13:31:25;6.88;;;2.47;;
23565;SDS011;22140;48.988;8.544;2022-08-03T13:36:26;5.63;;;2.40;;
23565;SDS011;22140;48.988;8.544;2022-08-03T13:41:30;5.07;;;2.30;;
23565;SDS011;22140;48.988;8.544;2022-08-03T13:46:33;5.43;;;2.55;;
23565;SDS011;22140;48.988;8.544;2022-08-03T13:51:34;6.93;;;2.50;;
23565;SDS011;22140;48.988;8.544;2022-08-03T13:56:35;8.40;;;2.83;;
23565;SDS011;22140;48.988;8.544;2022-08-03T14:01:37;5.95;;;2.65;;
23565;SDS011;22140;48.988;8.544;2022-08-03T14:06:55;11.68;;;2.72;;
23565;SDS011;22140;48.988;8.544;2022-08-03T14:11:56;5.93;;;2.57;;
23565;SDS011;22140;48.988;8.544;2022-08-03T14:17:08;7.07;;;2.72;;
23565;SDS011;22140;48.988;8.544;2022-08-03T14:22:12;5.90;;;2.60;;
23565;SDS011;22140;48.988;8.544;2022-08-03T14:27:13;5.87;;;2.60;;
23565;SDS011;22140;48.988;8.544;2022-08-03T14:32:14;6.55;;;2.47;;
23565;SDS011;22140;48.988;8.544;2022-08-03T14:37:16;5.03;;;2.50;;
23565;SDS011;22140;48.988;8.544;2022-08-03T14:42:18;5.97;;;2.70;;
23565;SDS011;22140;48.988;8.544;2022-08-03T14:47:20;6.37;;;2.60;;
23565;SDS011;22140;48.988;8.544;2022-08-03T14:52:22;6.00;;;2.70;;
23565;SDS011;22140;48.988;8.544;2022-08-03T14:57:23;10.70;;;2.67;;
23565;SDS011;22140;48.988;8.544;2022-08-03T15:02:25;5.87;;;2.50;;
23565;SDS011;22140;48.988;8.544;2022-08-03T15:07:27;6.20;;;2.90;;
23565;SDS011;22140;48.988;8.544;2022-08-03T15:12:29;5.50;;;2.60;;
23565;SDS011;22140;48.988;8.544;2022-08-03T15:17:30;7.60;;;2.90;;
23565;SDS011;22140;48.988;8.544;2022-08-03T15:22:32;6.63;;;2.70;;
23565;SDS011;22140;48.988;8.544;2022-08-03T15:27:35;6.45;;;2.42;;
23565;SDS011;22140;48.988;8.544;2022-08-03T15:32:56;7.13;;;2.80;;
23565;SDS011;22140;48.988;8.544;2022-08-03T15:37:58;5.77;;;2.60;;
23565;SDS011;22140;48.988;8.544;2022-08-03T15:42:59;7.03;;;2.55;;
23565;SDS011;22140;48.988;8.544;2022-08-03T15:48:01;5.72;;;2.50;;
23565;SDS011;22140;48.988;8.544;2022-08-03T15:53:03;8.90;;;2.63;;
23565;SDS011;22140;48.988;8.544;2022-08-03T15:58:04;6.53;;;2.65;;
23565;SDS011;22140;48.988;8.544;2022-08-03T16:03:25;5.82;;;2.65;;
23565;SDS011;22140;48.988;8.544;2022-08-03T16:08:28;5.80;;;2.67;;
23565;SDS011;22140;48.988;8.544;2022-08-03T16:13:29;6.22;;;2.55;;
23565;SDS011;22140;48.988;8.544;2022-08-03T16:18:51;6.70;;;2.70;;
23565;SDS011;22140;48.988;8.544;2022-08-03T16:23:52;7.17;;;2.40;;
23565;SDS011;22140;48.988;8.544;2022-08-03T16:28:54;6.77;;;2.70;;
23565;SDS011;22140;48.988;8.544;2022-08-03T16:33:55;5.80;;;2.78;;
23565;SDS011;22140;48.988;8.544;2022-08-03T16:38:58;5.07;;;2.65;;
23565;SDS011;22140;48.988;8.544;2022-08-03T16:44:00;6.87;;;2.40;;
23565;SDS011;22140;48.988;8.544;2022-08-03T16:49:05;7.47;;;2.75;;
23565;SDS011;22140;48.988;8.544;2022-08-03T16:54:06;5.93;;;2.58;;
23565;SDS011;22140;48.988;8.544;2022-08-03T16:59:14;6.30;;;2.83;;
23565;SDS011;22140;48.988;8.544;2022-08-03T17:04:15;5.22;;;2.60;;
23565;SDS011;22140;48.988;8.544;2022-08-03T17:09:16;7.05;;;3.40;;
23565;SDS011;22140;48.988;8.544;2022-08-03T17:14:20;6.07;;;2.30;;
23565;SDS011;22140;48.988;8.544;2022-08-03T17:19:30;5.57;;;2.63;;
23565;SDS011;22140;48.988;8.544;2022-08-03T17:24:33;6.35;;;2.20;;
23565;SDS011;22140;48.988;8.544;2022-08-03T17:29:38;6.22;;;2.75;;
23565;SDS011;22140;48.988;8.544;2022-08-03T17:34:46;5.17;;;2.40;;
23565;SDS011;22140;48.988;8.544;2022-08-03T17:39:49;6.50;;;2.70;;
23565;SDS011;22140;48.988;8.544;2022-08-03T17:45:00;5.65;;;2.63;;
23565;SDS011;22140;48.988;8.544;2022-08-03T17:50:06;6.73;;;2.30;;
23565;SDS011;22140;48.988;8.544;2022-08-03T17:55:25;4.90;;;2.25;;
23565;SDS011;22140;48.988;8.544;2022-08-03T18:00:46;6.22;;;2.20;;
23565;SDS011;22140;48.988;8.544;2022-08-03T18:06:29;5.37;;;2.10;;
23565;SDS011;22140;48.988;8.544;2022-08-03T18:11:31;7.32;;;2.28;;
23565;SDS011;22140;48.988;8.544;2022-08-03T18:16:49;6.20;;;2.63;;
23565;SDS011;22140;48.988;8.544;2022-08-03T18:21:53;5.07;;;2.43;;
23565;SDS011;22140;48.988;8.544;2022-08-03T18:27:04;5.83;;;2.40;;
23565;SDS011;22140;48.988;8.544;2022-08-03T18:32:06;5.60;;;2.30;;
23565;SDS011;22140;48.988;8.544;2022-08-03T18:37:16;7.65;;;2.33;;
23565;SDS011;22140;48.988;8.544;2022-08-03T18:42:25;7.67;;;2.63;;
23565;SDS011;22140;48.988;8.544;2022-08-03T18:47:34;7.00;;;2.70;;
23565;SDS011;22140;48.988;8.544;2022-08-03T18:53:20;9.18;;;2.33;;
23565;SDS011;22140;48.988;8.544;2022-08-03T19:03:52;6.32;;;2.30;;
23565;SDS011;22140;48.988;8.544;2022-08-03T19:09:02;6.90;;;2.50;;
23565;SDS011;22140;48.988;8.544;2022-08-03T19:14:04;6.70;;;2.60;;
23565;SDS011;22140;48.988;8.544;2022-08-03T19:19:11;6.60;;;2.47;;
23565;SDS011;22140;48.988;8.544;2022-08-03T19:24:14;7.00;;;2.50;;
23565;SDS011;22140;48.988;8.544;2022-08-03T19:29:18;6.53;;;2.20;;
23565;SDS011;22140;48.988;8.544;2022-08-03T19:34:22;6.37;;;2.40;;
23565;SDS011;22140;48.988;8.544;2022-08-03T19:39:24;5.78;;;2.30;;
23565;SDS011;22140;48.988;8.544;2022-08-03T19:44:28;6.75;;;2.55;;
23565;SDS011;22140;48.988;8.544;2022-08-03T19:49:32;5.90;;;2.60;;
23565;SDS011;22140;48.988;8.544;2022-08-03T19:54:55;5.85;;;2.03;;
23565;SDS011;22140;48.988;8.544;2022-08-03T19:59:56;8.20;;;2.70;;
23565;SDS011;22140;48.988;8.544;2022-08-03T20:05:03;6.77;;;2.47;;
23565;SDS011;22140;48.988;8.544;2022-08-03T20:10:15;6.27;;;2.30;;
23565;SDS011;22140;48.988;8.544;2022-08-03T20:15:17;5.57;;;2.15;;
23565;SDS011;22140;48.988;8.544;2022-08-03T20:20:32;7.85;;;2.00;;
23565;SDS011;22140;48.988;8.544;2022-08-03T20:25:38;6.43;;;2.10;;
23565;SDS011;22140;48.988;8.544;2022-08-03T20:30:59;5.00;;;2.10;;
23565;SDS011;22140;48.988;8.544;2022-08-03T20:36:02;6.10;;;2.25;;
23565;SDS011;22140;48.988;8.544;2022-08-03T20:41:03;7.37;;;2.40;;
23565;SDS011;22140;48.988;8.544;2022-08-03T20:46:05;8.48;;;2.40;;
23565;SDS011;22140;48.988;8.544;2022-08-03T20:51:26;6.90;;;2.10;;
23565;SDS011;22140;48.988;8.544;2022-08-03T20:56:48;8.83;;;2.30;;
23565;SDS011;22140;48.988;8.544;2022-08-03T21:01:50;7.70;;;2.30;;
23565;SDS011;22140;48.988;8.544;2022-08-03T21:06:59;11.68;;;2.47;;
23565;SDS011;22140;48.988;8.544;2022-08-03T21:12:18;9.48;;;2.15;;
23565;SDS011;22140;48.988;8.544;2022-08-03T21:17:28;7.17;;;2.33;;
23565;SDS011;22140;48.988;8.544;2022-08-03T21:22:42;6.13;;;2.22;;
23565;SDS011;22140;48.988;8.544;2022-08-03T21:27:43;8.43;;;2.20;;
23565;SDS011;22140;48.988;8.544;2022-08-03T21:32:45;6.33;;;2.50;;
23565;SDS011;22140;48.988;8.544;2022-08-03T21:37:47;5.22;;;2.20;;
23565;SDS011;22140;48.988;8.544;2022-08-03T21:43:08;6.00;;;2.38;;
23565;SDS011;22140;48.988;8.544;2022-08-03T21:48:11;6.20;;;2.03;;
23565;SDS011;22140;48.988;8.544;2022-08-03T21:53:13;6.60;;;2.10;;
23565;SDS011;22140;48.988;8.544;2022-08-03T21:58:14;5.95;;;2.03;;
23565;SDS011;22140;48.988;8.544;2022-08-03T22:03:17;6.20;;;2.50;;
23565;SDS011;22140;48.988;8.544;2022-08-03T22:08:19;8.10;;;2.27;;
23565;SDS011;22140;48.988;8.544;2022-08-03T22:13:20;7.10;;;2.60;;
23565;SDS011;22140;48.988;8.544;2022-08-03T22:18:43;6.93;;;2.15;;
23565;SDS011;22140;48.988;8.544;2022-08-03T22:23:45;7.07;;;2.30;;
23565;SDS011;22140;48.988;8.544;2022-08-03T22:28:47;7.97;;;2.40;;
23565;SDS011;22140;48.988;8.544;2022-08-03T22:33:49;7.82;;;2.50;;
23565;SDS011;22140;48.988;8.544;2022-08-03T22:38:52;6.80;;;2.53;;
23565;SDS011;22140;48.988;8.544;2022-08-03T22:43:54;5.20;;;2.20;;
23565;SDS011;22140;48.988;8.544;2022-08-03T22:49:04;6.07;;;2.55;;
23565;SDS011;22140;48.988;8.544;2022-08-03T22:54:06;6.53;;;2.70;;
23565;SDS011;22140;48.988;8.544;2022-08-03T22:59:07;6.27;;;2.53;;
23565;SDS011;22140;48.988;8.544;2022-08-03T23:04:28;6.13;;;2.50;;
23565;SDS011;22140;48.988;8.544;2022-08-03T23:09:31;6.80;;;2.35;;
23565;SDS011;22140;48.988;8.544;2022-08-03T23:14:34;6.10;;;2.40;;
23565;SDS011;22140;48.988;8.544;2022-08-03T23:19:38;6.15;;;2.65;;
23565;SDS011;22140;48.988;8.544;2022-08-03T23:24:44;7.18;;;2.35;;
23565;SDS011;22140;48.988;8.544;2022-08-03T23:29:46;6.30;;;2.50;;
23565;SDS011;22140;48.988;8.544;2022-08-03T23:34:48;8.83;;;2.70;;
23565;SDS011;22140;48.988;8.544;2022-08-03T23:40:09;7.47;;;2.95;;
23565;SDS011;22140;48.988;8.544;2022-08-03T23:45:12;6.30;;;2.42;;
23565;SDS011;22140;48.988;8.544;2022-08-03T23:50:16;6.70;;;2.50;;
